createdAt,value
2018-04-26T00:00:43.954Z,973.03
2018-04-26T00:01:44.204Z,973.04
2018-04-26T00:02:44.469Z,973.04
2018-04-26T00:03:44.671Z,973.03
2018-04-26T00:04:44.878Z,973.00
2018-04-26T00:05:45.123Z,973.00
2018-04-26T00:06:45.355Z,973.01
2018-04-26T00:07:45.590Z,972.96
2018-04-26T00:08:45.830Z,972.99
2018-04-26T00:09:46.069Z,973.03
2018-04-26T00:10:46.324Z,973.02
2018-04-26T00:11:46.545Z,972.95
2018-04-26T00:12:46.774Z,972.97
2018-04-26T00:13:47.033Z,972.97
2018-04-26T00:14:47.238Z,972.97
2018-04-26T00:15:47.532Z,972.98
2018-04-26T00:16:47.698Z,972.94
2018-04-26T00:17:47.934Z,972.95
2018-04-26T00:18:48.189Z,972.95
2018-04-26T00:19:48.434Z,972.96
2018-04-26T00:20:48.653Z,972.99
2018-04-26T00:21:48.878Z,973.00
2018-04-26T00:22:49.127Z,972.97
2018-04-26T00:23:49.371Z,973.05
2018-04-26T00:24:49.593Z,973.02
2018-04-26T00:25:49.847Z,973.00
2018-04-26T00:26:50.083Z,972.97
2018-04-26T00:27:50.363Z,972.94
2018-04-26T00:28:50.581Z,973.02
2018-04-26T00:29:50.790Z,973.05
2018-04-26T00:30:51.036Z,973.07
2018-04-26T00:31:51.274Z,973.10
2018-04-26T00:32:51.511Z,973.15
2018-04-26T00:33:51.785Z,973.13
2018-04-26T00:34:52.007Z,973.10
2018-04-26T00:35:52.220Z,973.07
2018-04-26T00:36:52.453Z,973.00
2018-04-26T00:37:52.701Z,973.02
2018-04-26T00:38:52.928Z,973.02
2018-04-26T00:39:53.181Z,973.05
2018-04-26T00:40:53.419Z,973.01
2018-04-26T00:41:53.657Z,973.05
2018-04-26T00:42:53.892Z,972.99
2018-04-26T00:43:54.130Z,973.03
2018-04-26T00:44:54.350Z,973.06
2018-04-26T00:45:54.601Z,973.12
2018-04-26T00:46:54.822Z,973.11
2018-04-26T00:47:55.117Z,973.07
2018-04-26T00:48:55.359Z,973.08
2018-04-26T00:49:55.555Z,973.04
2018-04-26T00:50:55.799Z,973.03
2018-04-26T00:51:56.021Z,973.01
2018-04-26T00:52:56.241Z,973.02
2018-04-26T00:53:56.470Z,972.98
2018-04-26T00:54:56.755Z,972.97
2018-04-26T00:55:56.983Z,973.01
2018-04-26T00:56:57.197Z,972.98
2018-04-26T00:57:57.437Z,973.01
2018-04-26T00:58:57.657Z,972.98
2018-04-26T00:59:57.902Z,972.97
2018-04-26T01:00:58.130Z,972.97
2018-04-26T01:01:58.394Z,972.94
2018-04-26T01:02:58.601Z,972.95
2018-04-26T01:03:58.821Z,972.95
2018-04-26T01:04:59.071Z,972.95
2018-04-26T01:05:59.311Z,972.95
2018-04-26T01:06:59.511Z,972.97
2018-04-26T01:07:59.769Z,972.99
2018-04-26T01:08:59.976Z,972.98
2018-04-26T01:10:00.202Z,972.98
2018-04-26T01:11:00.436Z,972.94
2018-04-26T01:12:00.687Z,972.96
2018-04-26T01:13:00.902Z,972.93
2018-04-26T01:14:01.150Z,972.98
2018-04-26T01:15:01.355Z,973.00
2018-04-26T01:16:01.583Z,973.00
2018-04-26T01:17:01.808Z,973.00
2018-04-26T01:18:02.058Z,973.07
2018-04-26T01:19:02.295Z,973.03
2018-04-26T01:20:02.533Z,973.03
2018-04-26T01:21:02.741Z,973.06
2018-04-26T01:22:02.976Z,973.06
2018-04-26T01:23:03.222Z,973.10
2018-04-26T01:24:03.454Z,973.11
2018-04-26T01:25:03.674Z,973.14
2018-04-26T01:26:03.910Z,973.16
2018-04-26T01:27:04.171Z,973.15
2018-04-26T01:28:04.402Z,973.18
2018-04-26T01:29:04.639Z,973.18
2018-04-26T01:30:04.874Z,973.19
2018-04-26T01:31:05.125Z,973.17
2018-04-26T01:32:05.363Z,973.17
2018-04-26T01:33:05.566Z,973.17
2018-04-26T01:34:05.805Z,973.20
2018-04-26T01:35:06.035Z,973.22
2018-04-26T01:36:06.277Z,973.24
2018-04-26T01:37:06.541Z,973.21
2018-04-26T01:38:06.762Z,973.22
2018-04-26T01:39:06.968Z,973.23
2018-04-26T01:40:07.202Z,973.19
2018-04-26T01:41:07.433Z,973.21
2018-04-26T01:42:07.662Z,973.21
2018-04-26T01:43:07.891Z,973.21
2018-04-26T01:44:08.146Z,973.22
2018-04-26T01:45:08.368Z,973.17
2018-04-26T01:46:08.586Z,973.14
2018-04-26T01:47:08.822Z,973.12
2018-04-26T01:48:09.037Z,973.14
2018-04-26T01:49:09.268Z,973.08
2018-04-26T01:50:09.506Z,973.14
2018-04-26T01:51:09.751Z,973.15
2018-04-26T01:52:09.987Z,973.15
2018-04-26T01:53:10.266Z,973.12
2018-04-26T01:54:10.434Z,973.15
2018-04-26T01:55:10.687Z,973.14
2018-04-26T01:56:10.911Z,973.19
2018-04-26T01:57:11.129Z,973.15
2018-04-26T01:58:11.364Z,973.15
2018-04-26T01:59:11.626Z,973.19
2018-04-26T02:00:11.875Z,973.20
2018-04-26T02:01:12.097Z,973.16
2018-04-26T02:02:12.327Z,973.17
2018-04-26T02:03:12.565Z,973.22
2018-04-26T02:04:12.776Z,973.18
2018-04-26T02:05:13.035Z,973.17
2018-04-26T02:06:13.250Z,973.16
2018-04-26T02:07:13.497Z,973.18
2018-04-26T02:08:13.710Z,973.18
2018-04-26T02:09:13.937Z,973.18
2018-04-26T02:10:14.163Z,973.21
2018-04-26T02:11:14.400Z,973.16
2018-04-26T02:12:14.634Z,973.14
2018-04-26T02:13:14.869Z,973.15
2018-04-26T02:14:15.129Z,973.16
2018-04-26T02:15:15.318Z,973.22
2018-04-26T02:16:15.540Z,973.20
2018-04-26T02:17:15.774Z,973.21
2018-04-26T02:18:16.001Z,973.22
2018-04-26T02:19:16.259Z,973.21
2018-04-26T02:20:16.486Z,973.21
2018-04-26T02:21:16.716Z,973.18
2018-04-26T02:22:16.958Z,973.11
2018-04-26T02:23:17.214Z,973.15
2018-04-26T02:24:17.426Z,973.14
2018-04-26T02:25:17.648Z,973.15
2018-04-26T02:26:17.892Z,973.14
2018-04-26T02:27:18.144Z,973.18
2018-04-26T02:28:18.377Z,973.15
2018-04-26T02:29:18.599Z,973.23
2018-04-26T02:30:18.819Z,973.22
2018-04-26T02:31:19.113Z,973.24
2018-04-26T02:32:19.301Z,973.24
2018-04-26T02:33:19.544Z,973.27
2018-04-26T02:34:19.825Z,973.26
2018-04-26T02:35:20.017Z,973.25
2018-04-26T02:36:20.262Z,973.29
2018-04-26T02:37:20.476Z,973.25
2018-04-26T02:38:20.705Z,973.25
2018-04-26T02:39:20.942Z,973.27
2018-04-26T02:40:21.199Z,973.29
2018-04-26T02:41:21.401Z,973.27
2018-04-26T02:42:21.624Z,973.29
2018-04-26T02:43:21.874Z,973.28
2018-04-26T02:44:22.114Z,973.28
2018-04-26T02:45:22.357Z,973.29
2018-04-26T02:46:22.556Z,973.27
2018-04-26T02:47:22.783Z,973.30
2018-04-26T02:48:23.060Z,973.25
2018-04-26T02:49:23.262Z,973.26
2018-04-26T02:50:23.494Z,973.26
2018-04-26T02:51:23.740Z,973.27
2018-04-26T02:52:23.963Z,973.23
2018-04-26T02:53:24.183Z,973.25
2018-04-26T02:54:24.424Z,973.31
2018-04-26T02:55:24.669Z,973.27
2018-04-26T02:56:24.900Z,973.31
2018-04-26T02:57:25.116Z,973.33
2018-04-26T02:58:25.348Z,973.32
2018-04-26T02:59:25.614Z,973.34
2018-04-26T03:00:25.826Z,973.38
2018-04-26T03:01:26.060Z,973.38
2018-04-26T03:02:26.291Z,973.36
2018-04-26T03:03:26.559Z,973.40
2018-04-26T03:04:26.793Z,973.34
2018-04-26T03:05:27.013Z,973.34
2018-04-26T03:06:27.255Z,973.34
2018-04-26T03:07:27.497Z,973.30
2018-04-26T03:08:27.706Z,973.30
2018-04-26T03:09:27.940Z,973.30
2018-04-26T03:10:28.182Z,973.34
2018-04-26T03:11:28.397Z,973.28
2018-04-26T03:12:28.643Z,973.30
2018-04-26T03:13:28.875Z,973.28
2018-04-26T03:14:29.099Z,973.27
2018-04-26T03:15:29.422Z,973.23
2018-04-26T03:16:29.562Z,973.28
2018-04-26T03:17:29.829Z,973.25
2018-04-26T03:18:30.069Z,973.25
2018-04-26T03:19:30.305Z,973.29
2018-04-26T03:20:30.548Z,973.31
2018-04-26T03:21:30.755Z,973.29
2018-04-26T03:22:30.987Z,973.32
2018-04-26T03:23:31.229Z,973.31
2018-04-26T03:24:31.469Z,973.32
2018-04-26T03:25:31.718Z,973.35
2018-04-26T03:26:31.941Z,973.29
2018-04-26T03:27:32.203Z,973.27
2018-04-26T03:28:32.375Z,973.32
2018-04-26T03:29:32.662Z,973.29
2018-04-26T03:30:32.867Z,973.32
2018-04-26T03:31:33.104Z,973.32
2018-04-26T03:32:33.337Z,973.31
2018-04-26T03:33:33.590Z,973.36
2018-04-26T03:34:33.818Z,973.39
2018-04-26T03:35:34.036Z,973.36
2018-04-26T03:36:34.269Z,973.37
2018-04-26T03:37:34.492Z,973.39
2018-04-26T03:38:34.724Z,973.41
2018-04-26T03:39:34.951Z,973.40
2018-04-26T03:40:35.199Z,973.42
2018-04-26T03:41:35.436Z,973.40
2018-04-26T03:42:35.665Z,973.43
2018-04-26T03:43:35.908Z,973.43
2018-04-26T03:44:36.127Z,973.46
2018-04-26T03:45:36.378Z,973.43
2018-04-26T03:46:36.583Z,973.42
2018-04-26T03:47:36.835Z,973.42
2018-04-26T03:48:37.053Z,973.46
2018-04-26T03:49:37.300Z,973.44
2018-04-26T03:50:37.559Z,973.45
2018-04-26T03:51:37.751Z,973.42
2018-04-26T03:52:38.010Z,973.43
2018-04-26T03:53:38.233Z,973.47
2018-04-26T03:54:38.475Z,973.49
2018-04-26T03:55:38.708Z,973.50
2018-04-26T03:56:38.911Z,973.53
2018-04-26T03:57:39.152Z,973.51
2018-04-26T03:58:39.435Z,973.54
2018-04-26T03:59:39.648Z,973.50
2018-04-26T04:00:39.880Z,973.48
2018-04-26T04:01:40.141Z,973.47
2018-04-26T04:02:40.346Z,973.43
2018-04-26T04:03:40.574Z,973.47
2018-04-26T04:04:40.867Z,973.51
2018-04-26T04:05:41.086Z,973.51
2018-04-26T04:06:41.318Z,973.49
2018-04-26T04:07:41.548Z,973.45
2018-04-26T04:08:41.754Z,973.43
2018-04-26T04:09:42.027Z,973.45
2018-04-26T04:10:42.242Z,973.41
2018-04-26T04:11:42.469Z,973.41
2018-04-26T04:12:42.701Z,973.40
2018-04-26T04:13:42.959Z,973.46
2018-04-26T04:14:43.162Z,973.43
2018-04-26T04:15:43.391Z,973.45
2018-04-26T04:16:43.645Z,973.50
2018-04-26T04:17:43.882Z,973.51
2018-04-26T04:18:44.112Z,973.48
2018-04-26T04:19:44.351Z,973.52
2018-04-26T04:20:44.566Z,973.53
2018-04-26T04:21:44.824Z,973.50
2018-04-26T04:22:45.048Z,973.52
2018-04-26T04:23:45.267Z,973.50
2018-04-26T04:24:45.498Z,973.51
2018-04-26T04:25:45.729Z,973.50
2018-04-26T04:26:45.992Z,973.52
2018-04-26T04:27:46.228Z,973.54
2018-04-26T04:28:46.462Z,973.54
2018-04-26T04:29:46.701Z,973.53
2018-04-26T04:30:46.921Z,973.55
2018-04-26T04:31:47.186Z,973.53
2018-04-26T04:32:47.395Z,973.52
2018-04-26T04:33:47.627Z,973.50
2018-04-26T04:34:47.862Z,973.53
2018-04-26T04:35:48.085Z,973.59
2018-04-26T04:36:48.313Z,973.55
2018-04-26T04:37:48.560Z,973.56
2018-04-26T04:38:48.800Z,973.60
2018-04-26T04:39:49.082Z,973.63
2018-04-26T04:40:49.280Z,973.62
2018-04-26T04:41:49.518Z,973.59
2018-04-26T04:42:49.774Z,973.61
2018-04-26T04:43:49.982Z,973.65
2018-04-26T04:44:50.216Z,973.67
2018-04-26T04:45:50.447Z,973.75
2018-04-26T04:46:50.706Z,973.75
2018-04-26T04:47:50.920Z,973.75
2018-04-26T04:48:51.143Z,973.84
2018-04-26T04:49:51.379Z,973.75
2018-04-26T04:50:51.633Z,973.73
2018-04-26T04:51:51.888Z,973.76
2018-04-26T04:52:52.112Z,973.73
2018-04-26T04:53:52.353Z,973.79
2018-04-26T04:54:52.577Z,973.74
2018-04-26T04:55:52.804Z,973.76
2018-04-26T04:56:53.038Z,973.83
2018-04-26T04:57:53.275Z,973.82
2018-04-26T04:58:53.502Z,973.86
2018-04-26T04:59:53.729Z,973.83
2018-04-26T05:00:53.965Z,973.93
2018-04-26T05:01:54.274Z,973.87
2018-04-26T05:02:54.444Z,973.94
2018-04-26T05:03:54.681Z,973.94
2018-04-26T05:04:54.918Z,973.97
2018-04-26T05:05:55.143Z,973.92
2018-04-26T05:06:55.373Z,974.00
2018-04-26T05:07:55.610Z,974.00
2018-04-26T05:08:55.857Z,974.03
2018-04-26T05:09:56.097Z,974.07
2018-04-26T05:10:56.316Z,974.03
2018-04-26T05:11:56.569Z,974.12
2018-04-26T05:12:56.836Z,974.15
2018-04-26T05:13:57.028Z,974.06
2018-04-26T05:14:57.269Z,974.10
2018-04-26T05:15:57.485Z,974.07
2018-04-26T05:16:57.741Z,974.08
2018-04-26T05:17:57.974Z,974.09
2018-04-26T05:18:58.262Z,974.03
2018-04-26T05:19:58.501Z,974.06
2018-04-26T05:20:58.719Z,974.10
2018-04-26T05:21:58.965Z,974.10
2018-04-26T05:22:59.191Z,974.13
2018-04-26T05:23:59.405Z,974.13
2018-04-26T05:24:59.642Z,974.03
2018-04-26T05:25:59.870Z,974.07
2018-04-26T05:27:00.138Z,974.04
2018-04-26T05:28:00.342Z,974.06
2018-04-26T05:29:00.601Z,974.11
2018-04-26T05:30:00.838Z,974.17
2018-04-26T05:31:01.041Z,974.12
2018-04-26T05:32:01.282Z,974.13
2018-04-26T05:33:01.522Z,974.13
2018-04-26T05:34:01.763Z,974.15
2018-04-26T05:35:02.005Z,974.08
2018-04-26T05:36:02.247Z,974.09
2018-04-26T05:37:02.481Z,974.22
2018-04-26T05:38:02.709Z,974.15
2018-04-26T05:39:02.932Z,974.10
2018-04-26T05:40:03.162Z,974.15
2018-04-26T05:41:03.427Z,974.12
2018-04-26T05:42:03.669Z,974.17
2018-04-26T05:43:03.890Z,974.28
2018-04-26T05:44:04.136Z,974.28
2018-04-26T05:45:04.329Z,974.40
2018-04-26T05:46:04.569Z,974.24
2018-04-26T05:47:04.888Z,974.34
2018-04-26T05:48:05.079Z,974.30
2018-04-26T05:49:05.325Z,974.44
2018-04-26T05:50:05.540Z,974.31
2018-04-26T05:51:05.876Z,974.37
2018-04-26T05:52:06.024Z,974.34
2018-04-26T05:53:06.261Z,974.40
2018-04-26T05:54:06.497Z,974.37
2018-04-26T05:55:06.736Z,974.35
2018-04-26T05:56:06.974Z,974.39
2018-04-26T05:57:07.224Z,974.30
2018-04-26T05:58:07.426Z,974.39
2018-04-26T05:59:07.685Z,974.44
2018-04-26T06:00:07.914Z,974.31
2018-04-26T06:01:08.133Z,974.40
2018-04-26T06:02:08.368Z,974.41
2018-04-26T06:03:08.603Z,974.44
2018-04-26T06:04:08.828Z,974.37
2018-04-26T06:05:09.083Z,974.36
2018-04-26T06:06:09.284Z,974.41
2018-04-26T06:07:09.530Z,974.44
2018-04-26T06:08:09.767Z,974.52
2018-04-26T06:09:10.010Z,974.38
2018-04-26T06:10:10.272Z,974.51
2018-04-26T06:11:10.469Z,974.55
2018-04-26T06:12:10.739Z,974.67
2018-04-26T06:13:11.010Z,974.58
2018-04-26T06:14:18.793Z,974.51
2018-04-26T06:15:11.477Z,974.54
2018-04-26T06:16:11.715Z,974.59
2018-04-26T06:17:12.047Z,974.69
2018-04-26T06:18:12.191Z,974.56
2018-04-26T06:19:12.430Z,974.57
2018-04-26T06:20:12.669Z,974.65
2018-04-26T06:21:12.934Z,974.56
2018-04-26T06:22:13.151Z,974.54
2018-04-26T06:23:21.041Z,974.62
2018-04-26T06:24:13.677Z,974.62
2018-04-26T06:25:13.919Z,974.64
2018-04-26T06:26:14.185Z,974.79
2018-04-26T06:27:14.396Z,974.66
2018-04-26T06:28:14.631Z,974.69
2018-04-26T06:29:14.874Z,974.75
2018-04-26T06:30:15.111Z,974.83
2018-04-26T06:31:15.367Z,974.57
2018-04-26T06:32:15.596Z,974.66
2018-04-26T06:33:25.357Z,974.74
2018-04-26T06:34:23.872Z,974.76
2018-04-26T06:35:25.144Z,974.75
2018-04-26T06:36:16.887Z,974.68
2018-04-26T06:37:17.124Z,974.79
2018-04-26T06:38:27.113Z,974.74
2018-04-26T06:39:26.225Z,974.72
2018-04-26T06:40:26.919Z,974.78
2018-04-26T06:41:26.936Z,974.86
2018-04-26T06:42:18.746Z,974.71
2018-04-26T06:43:18.907Z,974.86
2018-04-26T06:44:26.801Z,974.85
2018-04-26T06:45:28.190Z,974.90
2018-04-26T06:46:28.969Z,974.84
2018-04-26T06:47:29.000Z,974.94
2018-04-26T06:48:29.064Z,974.96
2018-04-26T06:49:28.441Z,975.00
2018-04-26T06:50:21.181Z,974.94
2018-04-26T06:51:32.570Z,974.96
2018-04-26T06:52:21.999Z,974.92
2018-04-26T06:53:22.124Z,974.90
2018-04-26T06:54:31.120Z,974.97
2018-04-26T06:55:22.656Z,974.93
2018-04-26T06:56:31.545Z,975.00
2018-04-26T06:57:23.530Z,975.00
2018-04-26T06:58:31.264Z,974.96
2018-04-26T06:59:23.938Z,975.03
2018-04-26T07:00:24.179Z,975.01
2018-04-26T07:01:24.427Z,974.92
2018-04-26T07:02:24.653Z,974.94
2018-04-26T07:03:24.893Z,974.92
2018-04-26T07:04:25.128Z,974.96
2018-04-26T07:05:25.370Z,974.94
2018-04-26T07:06:25.611Z,975.01
2018-04-26T07:07:25.853Z,975.00
2018-04-26T07:08:26.180Z,974.98
2018-04-26T07:09:26.411Z,975.02
2018-04-26T07:10:26.568Z,974.93
2018-04-26T07:11:26.801Z,975.03
2018-04-26T07:12:27.038Z,975.11
2018-04-26T07:13:27.281Z,975.10
2018-04-26T07:14:27.518Z,975.15
2018-04-26T07:15:27.752Z,975.10
2018-04-26T07:16:28.003Z,975.14
2018-04-26T07:17:28.234Z,975.03
2018-04-26T07:18:28.474Z,975.11
2018-04-26T07:19:28.706Z,975.13
2018-04-26T07:20:28.943Z,975.13
2018-04-26T07:21:29.187Z,975.18
2018-04-26T07:22:29.423Z,975.15
2018-04-26T07:23:29.665Z,975.22
2018-04-26T07:24:29.905Z,975.26
2018-04-26T07:25:30.144Z,975.16
2018-04-26T07:26:30.384Z,975.20
2018-04-26T07:27:30.624Z,975.30
2018-04-26T07:28:30.864Z,975.47
2018-04-26T07:29:31.105Z,975.27
2018-04-26T07:30:31.347Z,975.29
2018-04-26T07:31:31.591Z,975.12
2018-04-26T07:32:31.831Z,975.25
2018-04-26T07:33:32.076Z,975.19
2018-04-26T07:34:32.318Z,975.26
2018-04-26T07:35:32.562Z,975.26
2018-04-26T07:36:32.801Z,975.31
2018-04-26T07:37:33.043Z,975.27
2018-04-26T07:38:33.284Z,975.16
2018-04-26T07:39:33.524Z,975.25
2018-04-26T07:40:33.767Z,975.23
2018-04-26T07:41:34.009Z,975.27
2018-04-26T07:42:34.248Z,975.34
2018-04-26T07:43:34.489Z,975.39
2018-04-26T07:44:34.728Z,975.40
2018-04-26T07:45:34.971Z,975.62
2018-04-26T07:46:35.214Z,975.31
2018-04-26T07:47:35.453Z,975.41
2018-04-26T07:48:35.696Z,975.46
2018-04-26T07:49:35.940Z,975.51
2018-04-26T07:50:36.182Z,975.38
2018-04-26T07:51:36.481Z,975.38
2018-04-26T07:52:36.688Z,975.39
2018-04-26T07:53:36.934Z,975.38
2018-04-26T07:54:37.178Z,975.38
2018-04-26T07:55:37.421Z,975.40
2018-04-26T07:56:37.664Z,975.50
2018-04-26T07:57:37.907Z,975.58
2018-04-26T07:58:38.150Z,975.43
2018-04-26T07:59:38.393Z,975.39
2018-04-26T08:00:38.630Z,975.35
2018-04-26T08:01:39.047Z,975.44
2018-04-26T08:02:39.126Z,975.39
2018-04-26T08:03:39.369Z,975.22
2018-04-26T08:04:39.603Z,975.43
2018-04-26T08:05:39.847Z,975.49
2018-04-26T08:06:40.091Z,975.58
2018-04-26T08:07:40.334Z,975.54
2018-04-26T08:08:40.574Z,975.55
2018-04-26T08:09:40.816Z,975.40
2018-04-26T08:10:41.059Z,975.33
2018-04-26T08:11:41.378Z,975.64
2018-04-26T08:12:41.547Z,975.56
2018-04-26T08:13:41.791Z,975.74
2018-04-26T08:14:42.041Z,975.76
2018-04-26T08:15:42.280Z,975.76
2018-04-26T08:16:42.522Z,975.92
2018-04-26T08:17:42.765Z,975.65
2018-04-26T08:18:43.009Z,975.82
2018-04-26T08:19:43.304Z,975.88
2018-04-26T08:20:43.497Z,975.79
2018-04-26T08:21:43.743Z,975.95
2018-04-26T08:22:43.986Z,975.89
2018-04-26T08:23:44.228Z,975.78
2018-04-26T08:24:44.474Z,975.68
2018-04-26T08:25:44.719Z,975.75
2018-04-26T08:26:44.963Z,975.85
2018-04-26T08:27:45.208Z,975.73
2018-04-26T08:28:45.454Z,975.93
2018-04-26T08:29:45.698Z,975.99
2018-04-26T08:30:45.964Z,976.10
2018-04-26T08:31:46.188Z,975.60
2018-04-26T08:32:46.434Z,975.83
2018-04-26T08:33:46.719Z,975.57
2018-04-26T08:34:46.968Z,975.62
2018-04-26T08:35:47.217Z,975.65
2018-04-26T08:36:47.475Z,975.55
2018-04-26T08:37:47.714Z,975.56
2018-04-26T08:38:47.957Z,975.67
2018-04-26T08:39:48.204Z,975.74
2018-04-26T08:40:48.450Z,975.79
2018-04-26T08:41:48.694Z,975.85
2018-04-26T08:42:49.006Z,976.17
2018-04-26T08:43:49.268Z,976.31
2018-04-26T08:44:49.513Z,976.19
2018-04-26T08:45:49.760Z,976.55
2018-04-26T08:46:50.013Z,976.72
2018-04-26T08:47:50.251Z,976.27
2018-04-26T08:48:50.497Z,976.74
2018-04-26T08:49:50.744Z,976.85
2018-04-26T08:50:50.993Z,976.76
2018-04-26T08:51:51.237Z,976.58
2018-04-26T08:52:51.477Z,976.48
2018-04-26T08:53:51.723Z,976.20
2018-04-26T08:54:51.971Z,976.61
2018-04-26T08:55:52.220Z,976.58
2018-04-26T08:56:52.463Z,976.57
2018-04-26T08:57:52.712Z,976.14
2018-04-26T08:58:52.959Z,976.41
2018-04-26T08:59:53.207Z,976.41
2018-04-26T09:00:53.455Z,976.25
2018-04-26T09:01:53.703Z,976.48
2018-04-26T09:02:53.950Z,976.36
2018-04-26T09:03:54.201Z,976.52
2018-04-26T09:04:54.446Z,976.53
2018-04-26T09:05:54.693Z,976.51
2018-04-26T09:06:54.942Z,976.52
2018-04-26T09:07:55.189Z,976.49
2018-04-26T09:08:55.438Z,976.62
2018-04-26T09:09:55.687Z,976.43
2018-04-26T09:10:55.935Z,976.80
2018-04-26T09:11:56.184Z,976.60
2018-04-26T09:12:56.431Z,976.49
2018-04-26T09:13:56.681Z,976.57
2018-04-26T09:14:56.928Z,976.69
2018-04-26T09:15:57.270Z,976.60
2018-04-26T09:16:57.428Z,976.65
2018-04-26T09:17:57.676Z,976.72
2018-04-26T09:18:57.925Z,976.78
2018-04-26T09:19:58.175Z,976.49
2018-04-26T09:20:58.425Z,976.68
2018-04-26T09:21:58.741Z,976.97
2018-04-26T09:22:58.922Z,976.67
2018-04-26T09:23:59.172Z,977.04
2018-04-26T09:24:59.421Z,977.06
2018-04-26T09:25:59.672Z,977.09
2018-04-26T09:26:59.924Z,976.66
2018-04-26T09:28:00.176Z,977.10
2018-04-26T09:29:00.422Z,977.06
2018-04-26T09:30:00.683Z,976.55
2018-04-26T09:31:00.920Z,976.20
2018-04-26T09:32:01.159Z,976.16
2018-04-26T09:33:01.409Z,976.24
2018-04-26T09:34:01.659Z,976.09
2018-04-26T09:35:01.909Z,975.98
2018-04-26T09:36:02.158Z,975.92
2018-04-26T09:37:02.408Z,976.13
2018-04-26T09:38:02.656Z,976.34
2018-04-26T09:39:02.909Z,976.40
2018-04-26T09:40:03.158Z,976.97
2018-04-26T09:41:03.403Z,976.13
2018-04-26T09:42:03.652Z,976.20
2018-04-26T09:43:03.898Z,976.17
2018-04-26T09:44:04.148Z,976.17
2018-04-26T09:45:04.394Z,977.96
2018-04-26T09:46:04.641Z,977.93
2018-04-26T09:47:04.885Z,977.88
2018-04-26T09:48:05.132Z,977.77
2018-04-26T09:49:05.380Z,977.91
2018-04-26T09:50:05.630Z,977.61
2018-04-26T09:51:05.878Z,977.73
2018-04-26T09:52:06.122Z,977.54
2018-04-26T09:53:06.374Z,977.60
2018-04-26T09:54:06.615Z,977.51
2018-04-26T09:55:06.864Z,977.51
2018-04-26T09:56:07.112Z,977.42
2018-04-26T09:57:07.362Z,977.50
2018-04-26T09:58:07.609Z,977.48
2018-04-26T09:59:07.857Z,977.41
2018-04-26T10:00:08.105Z,977.18
2018-04-26T10:01:08.358Z,977.21
2018-04-26T10:02:08.603Z,976.25
2018-04-26T10:03:08.852Z,977.16
2018-04-26T10:04:09.101Z,976.21
2018-04-26T10:05:09.351Z,976.22
2018-04-26T10:06:09.602Z,976.26
2018-04-26T10:07:09.851Z,976.20
2018-04-26T10:08:10.103Z,975.77
2018-04-26T10:09:10.347Z,976.30
2018-04-26T10:10:10.596Z,976.31
2018-04-26T10:11:10.845Z,976.39
2018-04-26T10:12:11.097Z,976.27
2018-04-26T10:13:11.349Z,976.20
2018-04-26T10:14:11.594Z,976.34
2018-04-26T10:15:11.853Z,976.32
2018-04-26T10:16:12.085Z,976.33
2018-04-26T10:17:12.331Z,976.38
2018-04-26T10:18:12.578Z,976.45
2018-04-26T10:19:12.823Z,976.53
2018-04-26T10:20:13.069Z,976.56
2018-04-26T10:21:13.389Z,976.55
2018-04-26T10:22:13.556Z,976.51
2018-04-26T10:23:13.800Z,976.57
2018-04-26T10:24:14.045Z,976.55
2018-04-26T10:25:14.288Z,976.54
2018-04-26T10:26:14.530Z,976.39
2018-04-26T10:27:14.775Z,976.46
2018-04-26T10:28:15.020Z,976.47
2018-04-26T10:29:15.263Z,976.51
2018-04-26T10:30:15.506Z,976.64
2018-04-26T10:31:15.752Z,976.55
2018-04-26T10:32:15.996Z,976.64
2018-04-26T10:33:16.239Z,976.79
2018-04-26T10:34:16.486Z,976.74
2018-04-26T10:35:16.730Z,976.74
2018-04-26T10:36:16.972Z,976.64
2018-04-26T10:37:17.213Z,976.71
2018-04-26T10:38:17.455Z,976.83
2018-04-26T10:39:17.697Z,976.81
2018-04-26T10:40:17.938Z,976.79
2018-04-26T10:41:18.179Z,976.85
2018-04-26T10:42:18.420Z,976.89
2018-04-26T10:43:18.661Z,976.92
2018-04-26T10:44:18.988Z,976.96
2018-04-26T10:45:19.143Z,976.96
2018-04-26T10:46:19.383Z,977.62
2018-04-26T10:47:19.622Z,977.12
2018-04-26T10:48:19.864Z,977.51
2018-04-26T10:49:20.103Z,977.19
2018-04-26T10:50:20.345Z,977.02
2018-04-26T10:51:20.586Z,977.02
2018-04-26T10:52:20.828Z,976.84
2018-04-26T10:53:21.068Z,976.83
2018-04-26T10:54:21.310Z,976.82
2018-04-26T10:55:21.551Z,976.89
2018-04-26T10:56:21.793Z,976.86
2018-04-26T10:57:22.035Z,976.87
2018-04-26T10:58:22.277Z,976.83
2018-04-26T10:59:22.519Z,976.87
2018-04-26T11:00:22.762Z,976.95
2018-04-26T11:01:23.004Z,976.98
2018-04-26T11:02:23.245Z,976.85
2018-04-26T11:03:23.491Z,976.76
2018-04-26T11:04:23.735Z,976.87
2018-04-26T11:05:23.976Z,976.81
2018-04-26T11:06:24.218Z,976.88
2018-04-26T11:07:24.459Z,976.82
2018-04-26T11:08:24.702Z,976.88
2018-04-26T11:09:24.943Z,976.79
2018-04-26T11:10:25.184Z,976.80
2018-04-26T11:11:25.461Z,976.88
2018-04-26T11:12:25.667Z,976.79
2018-04-26T11:13:25.909Z,976.72
2018-04-26T11:14:26.165Z,976.81
2018-04-26T11:15:26.423Z,976.78
2018-04-26T11:16:26.645Z,976.75
2018-04-26T11:17:26.871Z,976.77
2018-04-26T11:18:27.113Z,976.99
2018-04-26T11:19:27.357Z,977.01
2018-04-26T11:20:27.599Z,977.25
2018-04-26T11:21:27.841Z,977.14
2018-04-26T11:22:28.082Z,977.03
2018-04-26T11:23:28.412Z,977.18
2018-04-26T11:24:28.716Z,977.36
2018-04-26T11:25:28.902Z,977.24
2018-04-26T11:26:29.147Z,977.60
2018-04-26T11:27:29.504Z,977.60
2018-04-26T11:28:29.751Z,977.52
2018-04-26T11:29:29.994Z,977.75
2018-04-26T11:30:30.239Z,977.59
2018-04-26T11:31:30.485Z,977.65
2018-04-26T11:32:30.730Z,977.67
2018-04-26T11:33:30.977Z,977.73
2018-04-26T11:34:31.221Z,977.72
2018-04-26T11:35:31.469Z,977.74
2018-04-26T11:36:31.785Z,977.78
2018-04-26T11:37:32.014Z,977.76
2018-04-26T11:38:32.453Z,977.77
2018-04-26T11:39:32.593Z,977.69
2018-04-26T11:40:32.842Z,977.74
2018-04-26T11:41:33.093Z,977.72
2018-04-26T11:42:33.388Z,977.47
2018-04-26T11:43:33.635Z,977.51
2018-04-26T11:44:33.963Z,977.42
2018-04-26T11:45:34.337Z,977.41
2018-04-26T11:46:34.635Z,977.53
2018-04-26T11:47:34.999Z,977.36
2018-04-26T11:48:35.355Z,977.39
2018-04-26T11:49:35.606Z,977.32
2018-04-26T11:50:35.857Z,977.50
2018-04-26T11:51:36.110Z,977.39
2018-04-26T11:52:36.443Z,977.39
2018-04-26T11:53:36.689Z,977.58
2018-04-26T11:54:36.940Z,977.59
2018-04-26T11:55:37.191Z,977.64
2018-04-26T11:56:37.443Z,977.49
2018-04-26T11:57:37.697Z,977.47
2018-04-26T11:58:37.948Z,977.50
2018-04-26T11:59:38.200Z,976.90
2018-04-26T12:00:38.451Z,977.59
2018-04-26T12:01:38.710Z,977.61
2018-04-26T12:02:39.015Z,976.96
2018-04-26T12:03:39.206Z,976.86
2018-04-26T12:04:39.457Z,977.52
2018-04-26T12:05:39.708Z,977.38
2018-04-26T12:06:39.958Z,977.09
2018-04-26T12:07:40.262Z,977.53
2018-04-26T12:08:40.459Z,977.32
2018-04-26T12:09:40.760Z,977.53
2018-04-26T12:10:41.010Z,977.44
2018-04-26T12:11:41.262Z,977.44
2018-04-26T12:12:41.517Z,977.32
2018-04-26T12:13:41.771Z,977.38
2018-04-26T12:14:42.023Z,977.37
2018-04-26T12:15:42.272Z,977.31
2018-04-26T12:16:42.523Z,976.98
2018-04-26T12:17:42.774Z,976.80
2018-04-26T12:18:43.026Z,977.07
2018-04-26T12:19:43.284Z,977.31
2018-04-26T12:20:43.527Z,977.18
2018-04-26T12:21:43.779Z,976.68
2018-04-26T12:22:44.028Z,976.80
2018-04-26T12:23:44.282Z,976.73
2018-04-26T12:24:44.534Z,976.75
2018-04-26T12:25:44.787Z,976.96
2018-04-26T12:26:45.037Z,976.71
2018-04-26T12:27:45.290Z,976.72
2018-04-26T12:28:45.535Z,976.74
2018-04-26T12:29:45.785Z,976.72
2018-04-26T12:30:46.033Z,976.76
2018-04-26T12:31:46.280Z,976.78